Time;durP1;ratioP1;P1;durP2;ratioP2;P2;SDS_P1;SDS_P2;PMS_P1;PMS_P2;Temp;Humidity;BMP_temperature;BMP_pressure;BME280_temperature;BME280_humidity;BME280_pressure;Samples;Min_cycle;Max_cycle;Signal;HPM_P1;HPM_P2
2023/01/15 00:01:34;;;;;;;10.48;1.80;;;14.90;84.40;;;;;;4193599;28;19927;-63
2023/01/15 00:04:16;;;;;;;5.88;1.58;;;14.80;85.00;;;;;;4193832;28;20051;-63
2023/01/15 00:06:57;;;;;;;6.78;1.50;;;14.80;84.80;;;;;;4193908;28;20411;-63
2023/01/15 00:09:40;;;;;;;8.48;1.42;;;14.80;84.80;;;;;;4193437;28;20055;-63
2023/01/15 00:12:20;;;;;;;5.68;1.23;;;14.80;85.40;;;;;;4193062;28;20518;-63
2023/01/15 00:15:02;;;;;;;6.25;1.85;;;14.90;85.50;;;;;;4187767;28;20137;-63
2023/01/15 00:17:43;;;;;;;7.70;1.33;;;15.00;85.00;;;;;;4193166;28;20048;-63
2023/01/15 00:20:24;;;;;;;5.20;1.50;;;15.10;84.50;;;;;;4193269;28;20183;-63
2023/01/15 00:23:04;;;;;;;6.00;1.10;;;15.20;84.20;;;;;;4193734;28;20054;-64
2023/01/15 00:28:48;;;;;;;;;;;15.30;83.50;;;;;;4181700;28;20297;-63
2023/01/15 00:31:29;;;;;;;12.57;2.10;;;15.30;83.70;;;;;;4190771;28;19931;-63
2023/01/15 00:34:11;;;;;;;7.43;1.52;;;15.40;83.70;;;;;;4178857;28;20503;-63
2023/01/15 00:36:53;;;;;;;4.75;1.38;;;15.40;83.50;;;;;;4191806;28;20052;-62
2023/01/15 00:39:34;;;;;;;5.70;2.05;;;15.50;83.10;;;;;;4176688;28;20060;-62
2023/01/15 00:42:17;;;;;;;4.75;1.65;;;15.60;82.80;;;;;;4176974;28;20048;-62
2023/01/15 00:44:58;;;;;;;5.70;1.40;;;15.60;82.20;;;;;;4180475;28;20498;-62
2023/01/15 00:47:41;;;;;;;5.03;1.58;;;15.60;82.20;;;;;;4193065;28;20052;-62
2023/01/15 00:50:22;;;;;;;4.95;1.10;;;15.60;82.30;;;;;;4193235;28;20126;-62
2023/01/15 00:53:03;;;;;;;6.18;1.50;;;15.60;82.10;;;;;;4192935;28;20060;-62
2023/01/15 00:55:44;;;;;;;8.15;1.75;;;15.60;81.90;;;;;;4191740;28;20058;-62
2023/01/15 00:58:27;;;;;;;9.05;1.77;;;15.60;81.90;;;;;;4193158;28;20060;-63
2023/01/15 01:01:08;;;;;;;10.20;1.50;;;15.60;81.80;;;;;;4192954;28;20510;-62
2023/01/15 01:03:51;;;;;;;9.68;1.60;;;15.60;81.50;;;;;;4176572;28;20055;-63
2023/01/15 01:06:32;;;;;;;8.07;2.22;;;15.60;81.70;;;;;;4186749;28;20052;-62
2023/01/15 01:09:13;;;;;;;5.28;1.73;;;15.60;81.60;;;;;;4191470;28;20103;-62
2023/01/15 01:11:54;;;;;;;9.75;1.50;;;15.60;81.70;;;;;;4192606;28;20518;-62
2023/01/15 01:14:36;;;;;;;5.40;1.55;;;15.70;81.60;;;;;;4192986;28;20063;-62
2023/01/15 01:17:17;;;;;;;10.05;1.88;;;15.70;81.50;;;;;;4192678;28;20503;-61
2023/01/15 01:19:58;;;;;;;7.07;1.58;;;15.70;81.30;;;;;;4175928;28;20102;-62
2023/01/15 01:22:42;;;;;;;6.47;1.55;;;15.70;81.20;;;;;;4180487;28;20454;-63
2023/01/15 01:25:23;;;;;;;5.10;2.28;;;15.80;81.10;;;;;;4192182;28;20068;-64
2023/01/15 01:28:04;;;;;;;8.35;1.90;;;15.80;80.70;;;;;;4179811;28;20117;-64
2023/01/15 01:30:47;;;;;;;9.73;1.50;;;15.90;80.60;;;;;;4191103;28;20148;-64
2023/01/15 01:33:28;;;;;;;5.30;1.20;;;15.90;80.60;;;;;;4191351;28;20185;-62
2023/01/15 01:36:09;;;;;;;8.93;2.15;;;15.90;80.40;;;;;;4192471;28;20079;-61
2023/01/15 01:38:50;;;;;;;9.63;1.65;;;15.90;80.30;;;;;;4192138;28;20051;-61
2023/01/15 01:41:31;;;;;;;7.65;1.40;;;15.90;80.10;;;;;;4191538;28;20612;-64
2023/01/15 01:44:49;;;;;;;10.00;2.40;;;15.90;80.20;;;;;;4192607;28;20178;-62
2023/01/15 01:47:34;;;;;;;6.68;1.60;;;15.90;80.10;;;;;;4191029;28;20293;-62
2023/01/15 01:50:15;;;;;;;5.57;1.50;;;16.00;80.10;;;;;;4190755;28;20178;-62
2023/01/15 01:52:59;;;;;;;5.00;1.95;;;16.10;79.80;;;;;;4192215;28;20083;-62
2023/01/15 01:55:41;;;;;;;8.68;1.58;;;16.10;79.00;;;;;;4192246;28;20118;-62
2023/01/15 01:58:24;;;;;;;10.23;1.70;;;16.20;78.90;;;;;;4191122;28;20059;-62
2023/01/15 02:01:05;;;;;;;6.55;1.63;;;16.20;78.90;;;;;;4192595;28;20044;-62
2023/01/15 02:03:48;;;;;;;8.40;2.00;;;16.10;79.00;;;;;;4192325;28;20178;-62
2023/01/15 02:06:29;;;;;;;9.05;1.65;;;16.10;78.90;;;;;;4192451;28;20051;-62
2023/01/15 02:09:11;;;;;;;6.40;1.20;;;16.10;78.90;;;;;;4187993;28;20071;-62
2023/01/15 02:11:55;;;;;;;11.43;2.47;;;16.20;78.80;;;;;;4191097;28;20051;-62
2023/01/15 02:14:41;;;;;;;7.75;1.40;;;16.20;78.60;;;;;;4192267;28;20249;-62
2023/01/15 02:17:29;;;;;;;11.13;1.80;;;16.10;78.40;;;;;;4191175;28;20064;-63
2023/01/15 02:20:24;;;;;;;10.65;1.85;;;16.10;79.50;;;;;;4207948;27;20426;-62
2023/01/15 02:23:24;;;;;;;10.13;2.38;;;16.10;78.60;;;;;;4207228;27;20093;-62
2023/01/15 02:26:50;;;;;;;7.40;2.20;;;16.00;78.70;;;;;;4187523;28;20522;-62
2023/01/15 02:29:39;;;;;;;5.78;1.45;;;16.00;79.00;;;;;;4190763;28;20154;-63
2023/01/15 02:32:29;;;;;;;9.85;2.17;;;16.10;79.20;;;;;;4190925;28;20063;-62
2023/01/15 02:35:21;;;;;;;5.63;1.33;;;16.10;78.60;;;;;;4191775;28;20186;-62
2023/01/15 02:38:07;;;;;;;6.90;1.77;;;16.10;78.30;;;;;;4178779;28;20064;-63
2023/01/15 02:40:52;;;;;;;11.85;1.73;;;16.10;78.30;;;;;;4190683;28;20048;-62
2023/01/15 02:43:38;;;;;;;9.70;1.55;;;16.10;78.60;;;;;;4190955;28;20051;-63
2023/01/15 02:46:24;;;;;;;7.40;1.50;;;16.10;78.70;;;;;;4190644;28;20070;-62
2023/01/15 02:49:09;;;;;;;5.03;1.42;;;16.10;78.60;;;;;;4174496;28;20048;-62
2023/01/15 02:51:55;;;;;;;10.50;1.75;;;16.10;78.30;;;;;;4174240;28;20138;-62
2023/01/15 02:54:42;;;;;;;9.30;2.15;;;16.10;78.30;;;;;;4174932;28;20055;-63
2023/01/15 02:57:28;;;;;;;7.32;1.90;;;16.20;78.20;;;;;;4187878;28;20055;-64
2023/01/15 03:00:15;;;;;;;7.68;1.75;;;16.20;78.10;;;;;;4190886;28;20079;-62
2023/01/15 03:03:01;;;;;;;7.07;1.65;;;16.20;77.90;;;;;;4194200;28;20052;-62
2023/01/15 03:05:48;;;;;;;13.02;2.30;;;16.20;77.70;;;;;;4194931;28;20059;-63
2023/01/15 03:08:31;;;;;;;7.00;2.30;;;16.20;77.90;;;;;;4177321;28;20111;-63
2023/01/15 03:11:14;;;;;;;11.43;2.10;;;16.30;78.00;;;;;;4177236;28;20056;-63
2023/01/15 03:14:05;;;;;;;8.38;1.65;;;16.30;77.90;;;;;;4189089;28;20178;-64
2023/01/15 03:16:51;;;;;;;11.30;1.80;;;16.30;77.80;;;;;;4193384;28;20044;-63
2023/01/15 03:19:41;;;;;;;10.45;2.10;;;16.20;77.60;;;;;;4193645;28;20524;-63
2023/01/15 03:22:30;;;;;;;4.03;1.67;;;16.20;77.40;;;;;;4193412;28;20067;-63
2023/01/15 03:25:16;;;;;;;7.18;1.65;;;16.20;77.70;;;;;;4193696;28;20052;-63
2023/01/15 03:28:02;;;;;;;9.75;1.70;;;16.20;77.40;;;;;;4192797;28;20532;-62
2023/01/15 03:30:44;;;;;;;12.52;2.83;;;16.10;77.70;;;;;;4191885;28;20498;-63
2023/01/15 03:33:26;;;;;;;7.93;1.42;;;16.10;78.10;;;;;;4194348;28;20063;-63
2023/01/15 03:36:09;;;;;;;10.25;2.05;;;16.10;78.80;;;;;;4193185;28;20499;-63
2023/01/15 03:38:59;;;;;;;8.70;1.90;;;16.10;77.90;;;;;;4193130;28;20059;-62
2023/01/15 03:42:05;;;;;;;;;;;16.20;77.90;;;;;;4194458;28;20407;-62
2023/01/15 03:44:56;;;;;;;7.18;2.13;;;16.20;77.90;;;;;;4192548;28;19931;-63
2023/01/15 03:47:49;;;;;;;13.52;2.58;;;16.20;77.50;;;;;;4176005;28;20048;-63
2023/01/15 03:50:42;;;;;;;5.70;1.20;;;16.20;77.00;;;;;;4188281;28;20520;-62
2023/01/15 03:53:31;;;;;;;6.55;1.60;;;16.30;77.20;;;;;;4176220;28;20052;-62
2023/01/15 03:56:23;;;;;;;9.13;1.80;;;16.30;76.80;;;;;;4188056;28;20443;-62
2023/01/15 03:59:11;;;;;;;8.88;1.73;;;16.20;76.80;;;;;;4183224;28;20051;-62
2023/01/15 04:02:15;;;;;;;11.65;1.80;;;16.20;76.80;;;;;;4193322;28;20411;-61
2023/01/15 04:04:57;;;;;;;8.07;1.40;;;16.20;77.10;;;;;;4193795;28;20063;-62
2023/01/15 04:07:41;;;;;;;6.53;1.90;;;16.20;76.70;;;;;;4192757;28;20051;-62
2023/01/15 04:10:22;;;;;;;11.60;2.17;;;16.20;76.50;;;;;;4192800;28;20056;-62
2023/01/15 04:13:04;;;;;;;5.63;1.63;;;16.30;76.70;;;;;;4192015;28;20123;-62
2023/01/15 04:15:45;;;;;;;7.70;1.92;;;16.30;76.50;;;;;;4177291;28;20051;-62
2023/01/15 04:18:27;;;;;;;10.90;1.85;;;16.30;76.30;;;;;;4182703;28;20075;-62
2023/01/15 04:21:08;;;;;;;6.93;1.67;;;16.30;76.10;;;;;;4192627;28;20063;-62
2023/01/15 04:23:50;;;;;;;7.80;1.50;;;16.30;75.80;;;;;;4193835;28;20174;-62
2023/01/15 04:26:30;;;;;;;9.80;2.53;;;16.30;75.90;;;;;;4193506;28;20052;-62
2023/01/15 04:29:11;;;;;;;11.20;1.63;;;16.30;75.90;;;;;;4192269;28;20105;-62
2023/01/15 04:31:56;;;;;;;8.67;2.17;;;16.30;76.10;;;;;;4193558;28;20403;-61
2023/01/15 04:34:37;;;;;;;6.22;1.27;;;16.30;76.40;;;;;;4193038;28;20039;-63
2023/01/15 04:37:18;;;;;;;8.45;1.98;;;16.30;76.20;;;;;;4193018;28;20047;-62
2023/01/15 04:40:00;;;;;;;7.20;1.50;;;16.40;75.80;;;;;;4193635;28;20129;-62
2023/01/15 04:45:39;;;;;;;15.65;2.13;;;16.40;75.70;;;;;;4193173;28;20093;-62
2023/01/15 04:48:20;;;;;;;8.10;2.10;;;16.40;76.30;;;;;;4193549;28;20051;-62
2023/01/15 04:51:03;;;;;;;4.95;1.60;;;16.40;75.20;;;;;;4192525;28;20372;-62
2023/01/15 04:53:44;;;;;;;8.88;1.60;;;16.40;75.00;;;;;;4192845;28;20408;-62
2023/01/15 04:56:26;;;;;;;10.50;1.70;;;16.40;75.00;;;;;;4192759;28;20056;-62
2023/01/15 04:59:08;;;;;;;9.13;2.00;;;16.30;75.20;;;;;;4192894;28;20510;-61
2023/01/15 05:01:49;;;;;;;;;;;16.30;75.30;;;;;;4193722;28;20051;-62
2023/01/15 05:04:42;;;;;;;9.80;1.98;;;16.20;75.90;;;;;;4193011;28;19973;-62
2023/01/15 05:07:23;;;;;;;9.98;1.85;;;16.30;76.10;;;;;;4192793;28;20059;-62
2023/01/15 05:10:05;;;;;;;11.32;2.65;;;16.30;75.80;;;;;;4175461;28;20056;-62
2023/01/15 05:12:47;;;;;;;8.88;1.83;;;16.40;75.40;;;;;;4176384;28;20051;-61
2023/01/15 05:15:28;;;;;;;9.73;2.20;;;16.40;76.10;;;;;;4176377;28;20503;-62
2023/01/15 05:18:13;;;;;;;11.25;2.05;;;16.40;75.30;;;;;;4174823;28;20060;-62
2023/01/15 05:20:54;;;;;;;7.90;1.55;;;16.50;76.00;;;;;;4176160;28;20553;-62
2023/01/15 05:23:36;;;;;;;9.67;1.80;;;16.60;74.60;;;;;;4185325;28;20047;-62
2023/01/15 05:26:16;;;;;;;;;;;16.60;74.20;;;;;;4192128;28;20297;-63
2023/01/15 05:29:00;;;;;;;6.50;1.80;;;16.70;75.10;;;;;;4192607;28;19954;-61
2023/01/15 05:31:43;;;;;;;7.60;2.05;;;16.70;74.00;;;;;;4192827;28;20055;-62
2023/01/15 05:34:24;;;;;;;10.13;2.28;;;16.70;73.80;;;;;;4192669;28;20106;-62
2023/01/15 05:37:05;;;;;;;8.25;1.58;;;16.70;73.60;;;;;;4192590;28;20055;-62
2023/01/15 05:39:46;;;;;;;7.28;1.60;;;16.70;73.60;;;;;;4176711;28;20056;-63
2023/01/15 05:42:28;;;;;;;7.97;1.65;;;16.70;73.60;;;;;;4175757;28;20097;-62
2023/01/15 05:45:10;;;;;;;12.20;2.42;;;16.70;73.70;;;;;;4176063;28;20081;-62
2023/01/15 05:47:53;;;;;;;7.95;1.90;;;16.70;73.60;;;;;;4175858;28;20063;-62
2023/01/15 05:50:34;;;;;;;5.30;1.77;;;16.70;73.40;;;;;;4175974;28;20498;-62
2023/01/15 05:53:15;;;;;;;9.43;2.17;;;16.70;73.60;;;;;;4181785;28;20056;-61
2023/01/15 05:55:56;;;;;;;11.45;2.15;;;16.70;74.40;;;;;;4192279;28;20052;-62
2023/01/15 05:58:37;;;;;;;6.07;1.52;;;16.70;73.50;;;;;;4175959;28;20495;-62
2023/01/15 06:01:19;;;;;;;11.00;2.10;;;16.70;73.50;;;;;;4175757;28;20187;-62
2023/01/15 06:04:01;;;;;;;7.38;1.85;;;16.70;73.60;;;;;;4174555;28;20051;-62
2023/01/15 06:06:43;;;;;;;7.60;2.35;;;16.70;73.50;;;;;;4159185;28;20180;-61
2023/01/15 06:09:26;;;;;;;9.55;1.88;;;16.70;73.40;;;;;;4175570;28;20068;-62
2023/01/15 06:12:07;;;;;;;10.48;2.40;;;16.70;73.30;;;;;;4159440;28;20048;-62
2023/01/15 06:14:48;;;;;;;8.07;2.00;;;16.70;73.30;;;;;;4175892;28;20056;-62
2023/01/15 06:17:30;;;;;;;6.53;1.45;;;16.70;73.20;;;;;;4175784;28;20075;-62
2023/01/15 06:20:12;;;;;;;8.30;2.00;;;16.70;73.40;;;;;;4175684;28;20056;-62
2023/01/15 06:22:53;;;;;;;6.10;1.38;;;16.70;73.20;;;;;;4178082;28;20091;-62
2023/01/15 06:25:35;;;;;;;5.15;1.23;;;16.70;73.10;;;;;;4208857;27;20051;-62
2023/01/15 06:28:16;;;;;;;4.55;1.48;;;16.70;72.90;;;;;;4208837;27;20046;-62
2023/01/15 06:30:57;;;;;;;7.50;1.98;;;16.60;72.90;;;;;;4191699;28;20055;-62
2023/01/15 06:33:39;;;;;;;7.57;1.52;;;16.60;73.20;;;;;;4192157;28;20048;-62
2023/01/15 06:36:22;;;;;;;8.45;2.10;;;16.50;72.90;;;;;;4192763;28;20055;-62
2023/01/15 06:39:03;;;;;;;5.47;1.30;;;16.40;73.30;;;;;;4195361;28;20126;-62
2023/01/15 06:47:41;;;;;;;8.15;1.90;;;16.20;73.90;;;;;;4161171;28;20057;-61
2023/01/15 06:50:23;;;;;;;6.15;1.35;;;16.10;74.30;;;;;;4161590;28;20060;-63
2023/01/15 06:53:04;;;;;;;7.78;1.58;;;16.10;74.80;;;;;;4198482;27;20047;-62
2023/01/15 06:55:45;;;;;;;6.13;1.90;;;16.00;75.00;;;;;;4211363;27;20055;-62
2023/01/15 06:58:25;;;;;;;8.87;1.27;;;16.00;75.30;;;;;;4211586;27;20067;-62
2023/01/15 07:01:10;;;;;;;7.38;1.60;;;16.00;75.40;;;;;;4211475;27;20054;-61
2023/01/15 07:03:51;;;;;;;7.97;1.63;;;16.00;76.10;;;;;;4210880;27;20407;-62
2023/01/15 07:06:33;;;;;;;9.10;1.92;;;16.00;75.50;;;;;;4161473;28;20599;-63
2023/01/15 07:09:15;;;;;;;8.13;1.60;;;16.10;75.70;;;;;;4161466;28;20048;-60
2023/01/15 07:11:55;;;;;;;6.65;1.88;;;16.20;75.30;;;;;;4184087;27;20055;-62
2023/01/15 07:14:37;;;;;;;8.05;1.65;;;16.30;74.60;;;;;;4211121;27;20058;-62
2023/01/15 07:17:18;;;;;;;;;;;16.50;75.00;;;;;;4204455;27;20059;-62
2023/01/15 07:19:58;;;;;;;5.00;1.15;;;16.60;73.40;;;;;;4162602;28;20022;-63
2023/01/15 07:22:41;;;;;;;6.60;1.60;;;16.70;72.60;;;;;;4178225;28;20056;-62
2023/01/15 07:25:22;;;;;;;6.63;1.65;;;16.80;72.00;;;;;;4177756;28;20052;-62
2023/01/15 07:28:03;;;;;;;10.15;1.75;;;16.80;71.40;;;;;;4177356;28;20133;-62
2023/01/15 07:30:43;;;;;;;8.90;1.83;;;16.90;71.10;;;;;;4177653;28;20056;-62
2023/01/15 07:33:24;;;;;;;6.40;1.52;;;16.90;70.40;;;;;;4193073;27;20051;-62
2023/01/15 07:36:06;;;;;;;9.25;2.15;;;16.90;70.10;;;;;;4190324;27;20510;-62
2023/01/15 07:38:49;;;;;;;;;;;16.90;69.80;;;;;;4198221;27;20502;-62
2023/01/15 07:50:26;;;;;;;6.60;1.20;;;16.80;68.50;;;;;;4210498;27;20058;-61
2023/01/15 07:53:06;;;;;;;7.03;1.30;;;16.80;68.20;;;;;;4208724;27;20055;-62
2023/01/15 07:55:49;;;;;;;7.07;1.48;;;16.80;68.00;;;;;;4190540;28;20391;-62
2023/01/15 07:58:29;;;;;;;5.15;1.17;;;16.80;67.70;;;;;;4194008;28;20052;-61
2023/01/15 08:01:10;;;;;;;9.95;1.60;;;16.70;67.50;;;;;;4193923;28;20187;-62
2023/01/15 08:03:51;;;;;;;7.97;1.50;;;16.70;67.50;;;;;;4177399;28;20175;-62
2023/01/15 08:06:32;;;;;;;4.93;1.50;;;16.60;67.60;;;;;;4177466;28;20052;-64
2023/01/15 08:09:14;;;;;;;7.80;1.77;;;16.50;68.10;;;;;;4204992;27;20055;-62
2023/01/15 08:15:12;;;;;;;5.18;0.90;;;16.60;68.00;;;;;;4192925;28;20059;-63
2023/01/15 08:17:53;;;;;;;6.38;1.20;;;16.70;67.50;;;;;;4193588;28;20147;-62
2023/01/15 08:20:35;;;;;;;5.05;1.25;;;16.80;67.20;;;;;;4190442;28;20071;-61
2023/01/15 08:23:16;;;;;;;;;;;16.90;66.70;;;;;;4186593;28;20055;-62
2023/01/15 08:25:59;;;;;;;6.82;1.40;;;17.00;66.40;;;;;;4192545;28;20050;-61
2023/01/15 08:28:42;;;;;;;3.95;1.45;;;17.00;66.00;;;;;;4176642;28;20507;-63
2023/01/15 08:31:23;;;;;;;7.15;1.65;;;17.00;65.70;;;;;;4192873;28;20052;-62
2023/01/15 08:34:04;;;;;;;6.05;1.38;;;17.00;65.90;;;;;;4192815;28;20178;-62
2023/01/15 08:36:44;;;;;;;4.45;1.33;;;17.10;66.00;;;;;;4192156;28;20494;-63
2023/01/15 08:39:26;;;;;;;5.22;1.70;;;17.10;66.00;;;;;;4192520;28;20593;-62
2023/01/15 08:42:07;;;;;;;;;;;17.10;65.90;;;;;;4193989;28;20048;-62
2023/01/15 08:44:50;;;;;;;4.07;1.30;;;17.10;66.00;;;;;;4176825;28;20058;-62
2023/01/15 08:47:31;;;;;;;5.18;1.52;;;17.10;65.90;;;;;;4176139;28;20486;-62
2023/01/15 08:50:12;;;;;;;;;;;17.00;65.40;;;;;;4176834;28;20047;-63
2023/01/15 08:52:53;;;;;;;9.75;1.98;;;17.00;66.10;;;;;;4181913;28;19930;-63
2023/01/15 08:55:34;;;;;;;7.28;0.95;;;17.00;66.20;;;;;;4189999;28;20046;-62
2023/01/15 08:58:15;;;;;;;5.82;1.50;;;17.00;66.20;;;;;;4192762;28;20142;-61
2023/01/15 09:01:04;;;;;;;7.57;1.50;;;17.00;65.70;;;;;;4191482;28;20063;-61
2023/01/15 09:03:46;;;;;;;3.15;1.02;;;17.10;65.70;;;;;;4192624;28;20055;-61
2023/01/15 09:06:27;;;;;;;3.22;1.75;;;17.10;65.60;;;;;;4192997;28;20048;-61
2023/01/15 09:09:08;;;;;;;5.43;1.23;;;17.10;65.50;;;;;;4164325;28;20066;-62
2023/01/15 09:11:49;;;;;;;2.78;0.80;;;17.00;65.50;;;;;;4175256;28;20048;-61
2023/01/15 09:14:30;;;;;;;4.07;1.02;;;17.00;65.60;;;;;;4176246;28;20146;-61
2023/01/15 09:17:34;;;;;;;6.15;1.33;;;17.00;65.40;;;;;;4190928;28;20075;-62
2023/01/15 09:20:15;;;;;;;3.47;1.20;;;17.00;64.90;;;;;;4191062;28;20121;-61
2023/01/15 09:22:56;;;;;;;4.18;1.13;;;17.00;65.10;;;;;;4192229;28;20051;-61
2023/01/15 09:25:37;;;;;;;4.63;2.05;;;17.00;66.00;;;;;;4190995;28;20742;-62
2023/01/15 09:28:18;;;;;;;7.80;1.48;;;17.00;65.50;;;;;;4177295;28;20044;-62
2023/01/15 09:30:59;;;;;;;4.82;1.48;;;17.10;65.30;;;;;;4190998;28;20043;-62
2023/01/15 09:33:41;;;;;;;1.60;1.13;;;17.10;66.20;;;;;;4206949;27;20055;-62
2023/01/15 09:36:24;;;;;;;3.05;1.02;;;17.10;64.60;;;;;;4196730;27;20613;-62
2023/01/15 09:39:05;;;;;;;4.72;1.10;;;17.00;63.20;;;;;;4176000;28;20055;-63
2023/01/15 09:42:07;;;;;;;4.00;1.13;;;17.00;61.60;;;;;;4174687;28;20106;-61
2023/01/15 09:45:07;;;;;;;6.97;1.90;;;16.90;61.00;;;;;;4200546;27;20051;-62
2023/01/15 09:48:13;;;;;;;9.63;0.93;;;16.80;60.60;;;;;;4208788;27;20181;-62
2023/01/15 09:51:04;;;;;;;6.10;1.98;;;16.90;60.20;;;;;;4191808;28;20051;-62
2023/01/15 09:54:04;;;;;;;4.05;1.20;;;17.20;58.70;;;;;;4183245;28;20046;-62
2023/01/15 09:56:46;;;;;;;4.72;1.35;;;17.50;57.10;;;;;;4191429;28;20063;-62
2023/01/15 09:59:32;;;;;;;3.13;0.82;;;17.90;56.90;;;;;;4192116;28;20081;-62
2023/01/15 10:02:24;;;;;;;4.88;1.23;;;18.40;56.60;;;;;;4190561;28;20121;-62
2023/01/15 10:05:15;;;;;;;6.80;1.48;;;18.80;55.70;;;;;;4192129;28;20121;-62
2023/01/15 10:08:02;;;;;;;5.15;1.45;;;19.20;55.00;;;;;;4191412;28;20136;-62
2023/01/15 10:10:46;;;;;;;3.53;1.58;;;19.40;54.80;;;;;;4191750;28;20178;-63
2023/01/15 10:13:31;;;;;;;3.70;1.30;;;19.60;54.50;;;;;;4195259;28;20145;-62
2023/01/15 10:16:21;;;;;;;2.88;1.10;;;19.80;54.40;;;;;;4195676;28;20051;-63
2023/01/15 10:19:03;;;;;;;7.05;1.25;;;19.90;54.40;;;;;;4195461;28;20090;-63
2023/01/15 10:21:53;;;;;;;8.25;1.95;;;19.80;54.50;;;;;;4178136;28;20060;-62
2023/01/15 10:24:38;;;;;;;5.82;1.52;;;19.70;54.50;;;;;;4193903;28;20051;-62
2023/01/15 10:27:22;;;;;;;6.70;1.45;;;19.60;55.10;;;;;;4194854;28;20051;-63
2023/01/15 10:30:12;;;;;;;5.18;1.70;;;19.50;55.60;;;;;;4194691;28;20495;-62
2023/01/15 10:32:57;;;;;;;7.32;1.38;;;19.50;55.90;;;;;;4212003;27;20052;-62
2023/01/15 10:35:53;;;;;;;6.00;1.52;;;19.40;56.10;;;;;;4180977;28;20050;-62
2023/01/15 10:38:42;;;;;;;3.53;1.52;;;19.40;56.00;;;;;;4211528;27;20067;-63
2023/01/15 10:41:36;;;;;;;7.15;1.55;;;19.40;56.40;;;;;;4194502;28;20388;-62
2023/01/15 10:44:23;;;;;;;9.57;1.60;;;19.40;56.20;;;;;;4197590;27;20403;-63
2023/01/15 10:47:11;;;;;;;5.45;1.55;;;19.40;56.50;;;;;;4211470;27;20070;-63
2023/01/15 10:49:52;;;;;;;6.70;1.35;;;19.40;56.60;;;;;;4211161;27;20047;-63
2023/01/15 10:52:37;;;;;;;5.43;1.60;;;19.40;56.70;;;;;;4212097;27;20496;-63
2023/01/15 10:55:24;;;;;;;4.43;1.30;;;19.50;56.70;;;;;;4207986;27;20055;-63
2023/01/15 10:58:13;;;;;;;4.30;1.70;;;19.40;56.60;;;;;;4194977;28;20043;-63
2023/01/15 11:00:59;;;;;;;5.60;1.48;;;19.40;56.70;;;;;;4178335;28;20048;-62
2023/01/15 11:03:42;;;;;;;6.78;1.83;;;19.40;56.70;;;;;;4178104;28;20451;-63
2023/01/15 11:06:23;;;;;;;6.47;1.35;;;19.40;56.90;;;;;;4177665;28;20192;-62
2023/01/15 11:09:05;;;;;;;9.60;2.00;;;19.40;57.00;;;;;;4178378;28;20527;-62
2023/01/15 11:20:50;;;;;;;4.68;1.02;;;19.50;56.90;;;;;;4201937;27;20059;-62
2023/01/15 11:23:35;;;;;;;;;;;19.40;57.20;;;;;;4193198;28;20850;-62
2023/01/15 11:26:23;;;;;;;3.65;2.08;;;19.40;57.60;;;;;;4193182;28;20061;-63
2023/01/15 11:29:14;;;;;;;6.30;1.40;;;19.40;57.20;;;;;;4184478;28;20067;-62
2023/01/15 11:31:56;;;;;;;8.48;1.88;;;19.30;57.20;;;;;;4194189;28;20056;-62
2023/01/15 11:34:39;;;;;;;6.43;1.60;;;19.30;57.50;;;;;;4190621;28;20047;-62
2023/01/15 11:37:19;;;;;;;7.18;2.10;;;19.30;57.50;;;;;;4194227;28;20064;-62
2023/01/15 11:40:06;;;;;;;6.90;3.03;;;19.30;57.60;;;;;;4194564;28;20166;-62
2023/01/15 11:51:48;;;;;;;6.93;1.90;;;19.30;58.10;;;;;;4194129;28;20157;-63
2023/01/15 11:54:32;;;;;;;7.25;2.17;;;19.30;57.80;;;;;;4189403;28;20059;-63
2023/01/15 11:57:22;;;;;;;10.40;2.15;;;19.30;57.60;;;;;;4194101;28;20048;-62
2023/01/15 12:00:05;;;;;;;6.75;1.63;;;19.20;57.90;;;;;;4194205;28;20411;-62
2023/01/15 12:02:51;;;;;;;5.72;2.03;;;19.20;57.90;;;;;;4182943;28;20050;-63
2023/01/15 12:05:36;;;;;;;6.32;1.65;;;19.20;58.10;;;;;;4199100;28;20126;-63
2023/01/15 12:08:26;;;;;;;6.63;1.92;;;19.20;58.00;;;;;;4185310;28;20043;-63
2023/01/15 12:11:29;;;;;;;8.48;1.90;;;19.10;58.10;;;;;;4177978;28;20400;-62
2023/01/15 12:14:38;;;;;;;3.25;1.50;;;19.10;58.40;;;;;;4193100;28;20067;-62
2023/01/15 12:17:28;;;;;;;9.75;2.33;;;19.10;58.50;;;;;;4176388;28;20121;-62
2023/01/15 12:20:21;;;;;;;8.77;1.52;;;19.10;58.30;;;;;;4198830;27;20419;-63
2023/01/15 12:23:31;;;;;;;9.00;1.88;;;19.10;58.40;;;;;;4209643;27;20046;-62
2023/01/15 12:26:19;;;;;;;11.00;1.70;;;19.10;58.10;;;;;;4176647;28;20048;-62
2023/01/15 12:29:06;;;;;;;7.50;1.92;;;19.10;58.20;;;;;;4176636;28;20102;-62
2023/01/15 12:31:52;;;;;;;5.63;1.77;;;19.10;58.10;;;;;;4176938;28;20094;-63
2023/01/15 12:34:42;;;;;;;5.03;1.90;;;19.20;57.90;;;;;;4185284;28;20056;-63
2023/01/15 12:37:28;;;;;;;7.78;1.52;;;19.10;57.80;;;;;;4193246;28;20055;-63
2023/01/15 12:40:20;;;;;;;7.80;2.00;;;19.20;58.00;;;;;;4193478;28;20486;-63
2023/01/15 12:46:02;;;;;;;7.55;1.50;;;19.20;58.10;;;;;;4193126;28;20173;-63
2023/01/15 12:48:53;;;;;;;5.15;1.38;;;19.10;58.40;;;;;;4192027;28;20050;-64
2023/01/15 12:51:40;;;;;;;2.97;0.70;;;19.10;58.40;;;;;;4209392;27;20047;-63
2023/01/15 12:54:28;;;;;;;2.90;1.02;;;19.00;58.30;;;;;;4207304;27;20055;-63
2023/01/15 12:57:17;;;;;;;2.85;1.00;;;18.90;58.50;;;;;;4197718;27;20198;-63
2023/01/15 13:00:04;;;;;;;4.03;1.30;;;18.90;58.60;;;;;;4192750;28;20065;-63
2023/01/15 13:03:00;;;;;;;2.67;1.02;;;18.80;58.60;;;;;;4192697;28;20055;-62
2023/01/15 13:05:46;;;;;;;3.38;0.93;;;18.90;58.70;;;;;;4191402;28;20179;-63
2023/01/15 13:08:33;;;;;;;3.47;1.27;;;18.80;59.20;;;;;;4192897;28;20533;-63
2023/01/15 13:11:14;;;;;;;1.92;0.90;;;18.80;59.70;;;;;;4202997;27;20073;-62
2023/01/15 13:13:58;;;;;;;5.77;0.73;;;18.80;61.20;;;;;;4193277;27;20051;-63
2023/01/15 13:16:48;;;;;;;2.53;0.80;;;18.80;61.40;;;;;;4194047;27;20092;-63
2023/01/15 13:19:38;;;;;;;2.70;0.70;;;18.90;60.60;;;;;;4192409;28;20071;-63
2023/01/15 13:22:24;;;;;;;1.02;0.50;;;19.00;60.40;;;;;;4192538;28;20043;-63
2023/01/15 13:25:34;;;;;;;4.90;0.95;;;19.00;60.60;;;;;;4192533;28;20167;-63
2023/01/15 13:28:39;;;;;;;2.72;0.98;;;19.00;60.50;;;;;;4192277;28;20059;-63
2023/01/15 13:32:05;;;;;;;1.05;0.60;;;19.10;60.70;;;;;;4191516;28;20087;-61
2023/01/15 13:34:49;;;;;;;1.30;0.65;;;19.10;60.60;;;;;;4140281;28;20052;-61
2023/01/15 13:37:34;;;;;;;1.52;0.70;;;19.10;60.90;;;;;;4191866;28;20502;-63
2023/01/15 13:40:23;;;;;;;0.70;0.47;;;19.00;60.70;;;;;;4192270;28;20059;-64
2023/01/15 13:43:06;;;;;;;3.13;0.60;;;19.00;61.30;;;;;;4192520;28;20056;-64
2023/01/15 13:45:50;;;;;;;1.30;0.50;;;19.00;61.50;;;;;;4175068;28;20059;-62
2023/01/15 13:48:36;;;;;;;2.17;0.70;;;19.00;62.10;;;;;;4174714;28;20066;-64
2023/01/15 13:51:27;;;;;;;0.73;0.40;;;18.90;61.70;;;;;;4174118;28;20051;-63
2023/01/15 13:54:15;;;;;;;2.83;0.93;;;18.90;61.90;;;;;;4174132;28;20055;-62
2023/01/15 13:57:07;;;;;;;1.27;0.50;;;18.90;61.90;;;;;;4162328;28;20446;-64
2023/01/15 13:59:49;;;;;;;2.00;0.93;;;18.70;62.10;;;;;;4158985;28;20060;-62
2023/01/15 14:02:33;;;;;;;1.42;0.70;;;18.60;62.70;;;;;;4184039;28;20163;-64
2023/01/15 14:05:29;;;;;;;3.40;0.80;;;18.50;63.20;;;;;;4191846;28;20117;-63
2023/01/15 14:08:16;;;;;;;5.18;1.88;;;18.40;63.80;;;;;;4208315;27;20467;-63
2023/01/15 14:11:00;;;;;;;3.75;0.88;;;18.20;64.70;;;;;;4208716;27;20055;-62
2023/01/15 14:14:08;;;;;;;4.38;1.17;;;18.20;65.50;;;;;;4208675;27;20051;-63
2023/01/15 14:16:58;;;;;;;3.92;0.88;;;18.20;65.80;;;;;;4206316;27;20055;-63
2023/01/15 14:20:02;;;;;;;5.90;1.17;;;18.20;65.90;;;;;;4204598;27;20059;-63
2023/01/15 14:23:03;;;;;;;3.97;0.93;;;18.30;65.70;;;;;;4190545;28;20052;-63
2023/01/15 14:26:01;;;;;;;7.50;1.58;;;18.40;65.80;;;;;;4190325;28;20624;-66
2023/01/15 14:29:00;;;;;;;2.33;1.02;;;18.40;65.70;;;;;;4176471;28;20051;-65
2023/01/15 14:31:58;;;;;;;2.67;0.93;;;18.40;65.70;;;;;;4190671;28;20712;-64
2023/01/15 14:34:40;;;;;;;3.78;1.33;;;18.50;65.40;;;;;;4191423;28;20487;-65
2023/01/15 14:37:28;;;;;;;4.20;1.05;;;18.50;65.50;;;;;;4196098;27;20042;-66
2023/01/15 14:40:19;;;;;;;5.03;1.55;;;18.50;65.60;;;;;;4208218;27;20051;-67
2023/01/15 14:43:05;;;;;;;4.65;1.42;;;18.60;65.90;;;;;;4206958;27;20054;-64
2023/01/15 14:45:51;;;;;;;3.50;1.23;;;18.60;65.80;;;;;;4206611;27;20055;-64
2023/01/15 14:48:38;;;;;;;3.53;1.00;;;18.60;65.70;;;;;;4199006;27;20051;-64
2023/01/15 14:51:25;;;;;;;6.25;0.90;;;18.50;65.50;;;;;;4178764;28;20039;-64
2023/01/15 14:54:09;;;;;;;3.35;1.23;;;18.50;65.70;;;;;;4190308;28;20127;-64
2023/01/15 14:56:55;;;;;;;5.32;1.33;;;18.40;66.10;;;;;;4190524;27;20216;-66
2023/01/15 14:59:44;;;;;;;4.32;1.20;;;18.40;66.10;;;;;;4211327;27;20475;-66
2023/01/15 15:02:31;;;;;;;3.28;0.95;;;18.30;66.60;;;;;;4210722;27;20550;-66
2023/01/15 15:05:15;;;;;;;4.45;1.00;;;18.30;67.00;;;;;;4212386;27;20067;-66
2023/01/15 15:07:56;;;;;;;6.85;1.42;;;18.30;67.10;;;;;;4179222;28;20060;-66